createdAt,value
2022-09-15T00:01:54.796Z,21.50
2022-09-15T00:04:23.880Z,20.52
2022-09-15T00:06:53.281Z,22.25
2022-09-15T00:09:22.008Z,22.13
2022-09-15T00:11:50.825Z,23.90
2022-09-15T00:14:21.121Z,22.30
2022-09-15T00:16:49.671Z,25.17
2022-09-15T00:19:18.452Z,26.58
2022-09-15T00:21:47.706Z,24.75
2022-09-15T00:24:17.363Z,25.83
2022-09-15T00:26:46.910Z,24.35
2022-09-15T00:29:16.049Z,24.67
2022-09-15T00:31:46.845Z,24.77
2022-09-15T00:34:16.804Z,23.65
2022-09-15T00:36:45.510Z,24.30
2022-09-15T00:39:16.151Z,24.52
2022-09-15T00:41:46.505Z,24.67
2022-09-15T00:44:50.322Z,22.25
2022-09-15T00:47:25.307Z,22.92
2022-09-15T00:49:59.368Z,23.10
2022-09-15T00:52:34.586Z,22.80
2022-09-15T00:55:07.459Z,20.70
2022-09-15T00:57:41.137Z,21.50
2022-09-15T01:00:13.214Z,23.17
2022-09-15T01:02:45.940Z,24.35
2022-09-15T01:05:22.918Z,26.20
2022-09-15T01:07:58.675Z,24.92
2022-09-15T01:10:33.094Z,25.40
2022-09-15T01:13:03.672Z,25.25
2022-09-15T01:15:40.504Z,28.70
2022-09-15T01:18:20.419Z,27.88
2022-09-15T01:21:29.059Z,25.55
2022-09-15T01:24:26.718Z,26.40
2022-09-15T01:27:30.432Z,24.20
2022-09-15T01:33:06.020Z,22.88
2022-09-15T01:35:53.002Z,24.67
2022-09-15T01:38:32.675Z,26.27
2022-09-15T01:41:08.608Z,26.92
2022-09-15T01:43:43.159Z,25.75
2022-09-15T01:46:17.050Z,26.35
2022-09-15T01:48:48.210Z,27.10
2022-09-15T01:51:18.832Z,26.55
2022-09-15T01:53:49.327Z,26.65
2022-09-15T01:56:18.712Z,25.00
2022-09-15T01:58:47.504Z,24.92
2022-09-15T02:01:23.473Z,23.90
2022-09-15T02:03:56.953Z,22.17
2022-09-15T02:06:33.735Z,24.10
2022-09-15T02:09:05.319Z,24.80
2022-09-15T02:11:36.897Z,24.55
2022-09-15T02:14:13.458Z,25.80
2022-09-15T02:16:47.588Z,27.42
2022-09-15T02:19:21.632Z,27.00
2022-09-15T02:21:57.736Z,29.25
2022-09-15T02:24:34.009Z,27.02
2022-09-15T02:27:04.952Z,27.20
2022-09-15T02:29:38.072Z,26.35
2022-09-15T02:32:09.639Z,27.27
2022-09-15T02:34:42.276Z,28.50
2022-09-15T02:37:11.501Z,31.85
2022-09-15T02:39:44.646Z,35.50
2022-09-15T02:42:12.659Z,35.58
2022-09-15T02:44:41.305Z,32.38
2022-09-15T02:47:10.621Z,31.65
2022-09-15T02:49:38.491Z,37.42
2022-09-15T02:52:07.423Z,37.20
2022-09-15T02:54:35.335Z,33.85
2022-09-15T02:57:03.397Z,32.95
2022-09-15T02:59:51.564Z,34.92
2022-09-15T03:02:21.178Z,40.30
2022-09-15T03:04:49.425Z,32.70
2022-09-15T03:07:18.349Z,35.97
2022-09-15T03:09:46.585Z,34.40
2022-09-15T03:12:16.140Z,32.22
2022-09-15T03:14:44.399Z,35.83
2022-09-15T03:17:12.276Z,32.05
2022-09-15T03:19:41.931Z,31.33
2022-09-15T03:22:10.431Z,34.33
2022-09-15T03:24:39.246Z,31.10
2022-09-15T03:27:07.303Z,30.60
2022-09-15T03:29:35.219Z,32.47
2022-09-15T03:32:03.767Z,29.73
2022-09-15T03:34:31.850Z,31.83
2022-09-15T03:37:01.473Z,31.70
2022-09-15T03:39:29.519Z,32.60
2022-09-15T03:41:57.356Z,30.77
2022-09-15T03:44:25.624Z,31.67
2022-09-15T03:46:53.609Z,30.27
2022-09-15T03:49:21.694Z,31.85
2022-09-15T03:51:49.545Z,29.33
2022-09-15T03:54:19.583Z,28.98
2022-09-15T03:56:49.059Z,29.98
2022-09-15T03:59:18.875Z,30.40
2022-09-15T04:01:47.785Z,32.15
2022-09-15T04:04:16.409Z,34.10
2022-09-15T04:06:44.951Z,29.92
2022-09-15T04:09:12.955Z,33.50
2022-09-15T04:11:42.898Z,31.15
2022-09-15T04:14:10.945Z,35.53
2022-09-15T04:16:39.134Z,32.25
2022-09-15T04:19:07.535Z,34.50
2022-09-15T04:21:35.529Z,30.50
2022-09-15T04:24:04.912Z,29.55
2022-09-15T04:26:35.119Z,28.38
2022-09-15T04:31:39.918Z,30.98
2022-09-15T04:34:07.736Z,29.55
2022-09-15T04:36:35.601Z,30.80
2022-09-15T04:39:03.602Z,28.85
2022-09-15T04:41:31.478Z,29.75
2022-09-15T04:43:59.805Z,29.00
2022-09-15T04:46:29.512Z,31.40
2022-09-15T04:48:57.835Z,31.40
2022-09-15T04:51:27.548Z,34.53
2022-09-15T04:53:55.733Z,33.50
2022-09-15T04:56:25.598Z,31.33
2022-09-15T04:58:59.543Z,32.08
2022-09-15T05:01:34.177Z,32.88
2022-09-15T05:04:03.817Z,30.25
2022-09-15T05:06:31.818Z,41.60
2022-09-15T05:08:59.954Z,30.75
2022-09-15T05:11:28.632Z,34.33
2022-09-15T05:13:56.610Z,30.88
2022-09-15T05:16:26.082Z,30.48
2022-09-15T05:18:57.538Z,32.65
2022-09-15T05:21:26.034Z,32.58
2022-09-15T05:23:54.356Z,34.92
2022-09-15T05:26:24.269Z,31.30
2022-09-15T05:28:52.700Z,35.30
2022-09-15T05:31:22.612Z,32.70
2022-09-15T05:33:53.044Z,39.35
2022-09-15T05:36:25.140Z,33.78
2022-09-15T05:38:56.526Z,33.85
2022-09-15T05:41:25.174Z,28.60
2022-09-15T05:43:54.432Z,31.25
2022-09-15T05:46:22.556Z,28.13
2022-09-15T05:48:50.719Z,24.92
2022-09-15T05:51:18.641Z,24.17
2022-09-15T05:53:47.952Z,24.65
2022-09-15T05:56:17.480Z,24.27
2022-09-15T05:58:47.667Z,25.33
2022-09-15T06:03:44.990Z,23.27
2022-09-15T06:06:13.247Z,22.73
2022-09-15T06:08:44.403Z,23.70
2022-09-15T06:11:16.230Z,22.70
2022-09-15T06:13:45.109Z,22.13
2022-09-15T06:16:14.257Z,21.48
2022-09-15T06:18:43.026Z,19.90
2022-09-15T06:21:13.504Z,20.77
2022-09-15T06:23:44.119Z,21.95
2022-09-15T06:26:19.612Z,20.45
2022-09-15T06:28:50.343Z,19.88
2022-09-15T06:31:18.537Z,18.92
2022-09-15T06:33:48.634Z,18.40
2022-09-15T06:36:17.096Z,20.65
2022-09-15T06:38:46.825Z,19.20
2022-09-15T06:41:16.917Z,18.85
2022-09-15T06:43:45.686Z,21.63
2022-09-15T06:46:15.877Z,20.30
2022-09-15T06:51:18.747Z,18.40
2022-09-15T06:53:47.356Z,18.58
2022-09-15T06:56:18.407Z,19.15
2022-09-15T06:58:48.983Z,17.55
2022-09-15T07:01:21.880Z,17.40
2022-09-15T07:03:50.519Z,17.63
2022-09-15T07:06:19.051Z,17.83
2022-09-15T07:08:47.960Z,17.88
2022-09-15T07:11:18.583Z,18.55
2022-09-15T07:13:47.099Z,16.75
2022-09-15T07:16:16.155Z,16.35
2022-09-15T07:18:44.816Z,18.05
2022-09-15T07:21:14.827Z,15.60
2022-09-15T07:23:43.605Z,16.08
2022-09-15T07:26:13.113Z,15.80
2022-09-15T07:28:45.661Z,16.02
2022-09-15T07:31:16.075Z,15.02
2022-09-15T07:33:44.232Z,14.30
2022-09-15T07:36:12.519Z,15.30
2022-09-15T07:38:42.879Z,14.35
2022-09-15T07:43:39.580Z,13.20
2022-09-15T07:46:09.105Z,13.27
2022-09-15T07:48:37.214Z,13.80
2022-09-15T07:51:05.235Z,14.40
2022-09-15T07:53:33.130Z,12.45
2022-09-15T07:56:01.114Z,13.25
2022-09-15T07:58:29.214Z,12.23
2022-09-15T08:01:03.337Z,11.77
2022-09-15T08:03:33.245Z,11.90
2022-09-15T08:06:01.537Z,10.95
2022-09-15T08:08:30.474Z,10.80
2022-09-15T08:10:58.513Z,10.68
2022-09-15T08:13:26.440Z,10.27
2022-09-15T08:15:54.506Z,9.23
2022-09-15T08:18:22.691Z,9.75
2022-09-15T08:20:52.104Z,8.93
2022-09-15T08:23:19.936Z,9.93
2022-09-15T08:25:48.199Z,9.63
2022-09-15T08:28:16.088Z,9.35
2022-09-15T08:30:44.079Z,10.15
2022-09-15T08:33:12.001Z,9.38
2022-09-15T08:35:39.901Z,9.57
2022-09-15T08:38:09.189Z,9.52
2022-09-15T08:40:38.885Z,9.52
2022-09-15T08:43:17.028Z,8.70
2022-09-15T08:45:50.681Z,8.65
2022-09-15T08:48:22.647Z,7.93
2022-09-15T08:50:53.103Z,7.60
2022-09-15T08:53:27.230Z,6.95
2022-09-15T08:55:56.835Z,7.85
2022-09-15T08:58:26.983Z,8.35
2022-09-15T09:01:03.501Z,6.18
2022-09-15T09:04:06.683Z,5.63
2022-09-15T09:06:44.718Z,7.15
2022-09-15T09:09:25.679Z,5.90
2022-09-15T09:12:18.127Z,6.22
2022-09-15T09:14:59.904Z,8.07
2022-09-15T09:17:46.706Z,6.10
2022-09-15T09:20:33.732Z,8.93
2022-09-15T09:23:08.923Z,6.28
2022-09-15T09:25:38.779Z,4.90
2022-09-15T09:28:12.730Z,12.30
2022-09-15T09:30:41.740Z,8.13
2022-09-15T09:33:30.494Z,5.28
2022-09-15T09:36:01.280Z,6.10
2022-09-15T09:38:33.092Z,5.50
2022-09-15T09:41:03.476Z,5.82
2022-09-15T09:43:33.852Z,5.22
2022-09-15T09:46:02.540Z,4.28
2022-09-15T09:48:31.291Z,4.38
2022-09-15T09:50:59.298Z,6.43
2022-09-15T09:53:31.133Z,8.20
2022-09-15T09:56:24.661Z,3.72
2022-09-15T09:58:53.356Z,6.30
2022-09-15T10:01:23.999Z,4.05
2022-09-15T10:04:12.646Z,4.10
2022-09-15T10:06:45.462Z,4.10
2022-09-15T10:09:17.648Z,4.47
2022-09-15T10:11:50.110Z,4.35
2022-09-15T10:14:22.026Z,3.67
2022-09-15T10:17:01.933Z,5.90
2022-09-15T10:19:32.334Z,6.72
2022-09-15T10:24:34.997Z,3.60
2022-09-15T10:27:19.865Z,6.20
2022-09-15T10:29:48.895Z,4.65
2022-09-15T10:32:24.312Z,4.68
2022-09-15T10:35:04.812Z,3.50
2022-09-15T10:37:44.864Z,4.85
2022-09-15T10:40:34.141Z,4.43
2022-09-15T10:43:22.569Z,7.50
2022-09-15T10:45:57.301Z,3.92
2022-09-15T10:48:49.339Z,6.05
2022-09-15T10:51:30.378Z,4.07
2022-09-15T10:54:21.088Z,4.63
2022-09-15T10:56:53.183Z,8.63
2022-09-15T10:59:39.239Z,6.03
2022-09-15T11:02:30.430Z,3.85
2022-09-15T11:05:20.530Z,3.42
2022-09-15T11:08:14.267Z,4.13
2022-09-15T11:10:50.508Z,5.55
2022-09-15T11:13:30.514Z,6.40
2022-09-15T11:16:09.646Z,10.38
2022-09-15T11:19:00.391Z,4.13
2022-09-15T11:21:33.885Z,5.75
2022-09-15T11:24:28.648Z,5.03
2022-09-15T11:27:01.851Z,5.50
2022-09-15T11:29:35.001Z,3.53
2022-09-15T11:32:11.086Z,3.67
2022-09-15T11:34:45.926Z,4.60
2022-09-15T11:37:18.453Z,4.15
2022-09-15T11:39:51.510Z,4.45
2022-09-15T11:42:26.330Z,3.58
2022-09-15T11:44:57.343Z,4.03
2022-09-15T11:47:32.840Z,4.50
2022-09-15T11:50:07.376Z,8.10
2022-09-15T11:52:47.864Z,3.05
2022-09-15T11:55:24.363Z,4.50
2022-09-15T11:57:58.305Z,6.40
2022-09-15T12:00:26.371Z,3.33
2022-09-15T12:03:11.619Z,3.90
2022-09-15T12:05:44.438Z,3.25
2022-09-15T12:08:20.345Z,7.53
2022-09-15T12:10:53.270Z,3.75
2022-09-15T12:13:23.060Z,4.93
2022-09-15T12:15:52.433Z,5.03
2022-09-15T12:18:46.765Z,4.75
2022-09-15T12:21:20.850Z,5.57
2022-09-15T12:23:57.588Z,4.22
2022-09-15T12:26:28.831Z,3.30
2022-09-15T12:29:02.346Z,3.30
2022-09-15T12:31:38.346Z,3.53
2022-09-15T12:34:38.337Z,5.40
2022-09-15T12:37:12.778Z,4.07
2022-09-15T12:39:43.090Z,6.20
2022-09-15T12:44:51.756Z,7.05
2022-09-15T12:47:25.501Z,6.45
2022-09-15T12:49:58.985Z,3.85
2022-09-15T12:52:27.542Z,7.20
2022-09-15T12:55:01.094Z,4.70
2022-09-15T12:57:31.975Z,4.63
2022-09-15T13:00:28.864Z,4.47
2022-09-15T13:02:58.114Z,3.97
2022-09-15T13:06:18.296Z,3.42
2022-09-15T13:08:52.905Z,5.45
2022-09-15T13:11:26.960Z,5.43
2022-09-15T13:14:07.834Z,4.47
2022-09-15T13:16:45.727Z,2.50
2022-09-15T13:19:18.318Z,3.05
2022-09-15T13:21:53.763Z,3.10
2022-09-15T13:24:30.991Z,6.30
2022-09-15T13:26:59.546Z,1.63
2022-09-15T13:29:32.191Z,4.40
2022-09-15T13:32:10.199Z,4.43
2022-09-15T13:35:20.711Z,6.38
2022-09-15T13:38:22.992Z,4.53
2022-09-15T13:41:20.919Z,2.75
2022-09-15T13:44:07.953Z,2.10
2022-09-15T13:46:50.118Z,4.53
2022-09-15T13:49:46.098Z,3.30
2022-09-15T13:52:26.298Z,5.53
2022-09-15T13:55:18.720Z,4.47
2022-09-15T14:00:55.276Z,1.77
2022-09-15T14:03:28.229Z,3.03
2022-09-15T14:05:57.585Z,2.53
2022-09-15T14:08:28.457Z,4.17
2022-09-15T14:10:59.469Z,3.00
2022-09-15T14:13:30.654Z,3.63
2022-09-15T14:16:00.965Z,4.22
2022-09-15T14:18:29.675Z,6.65
2022-09-15T14:21:02.895Z,6.07
2022-09-15T14:23:32.654Z,5.22
2022-09-15T14:26:02.419Z,3.53
2022-09-15T14:28:33.931Z,3.45
2022-09-15T14:31:03.235Z,1.85
2022-09-15T14:33:38.088Z,4.47
2022-09-15T14:36:23.455Z,4.22
2022-09-15T14:39:17.875Z,3.80
2022-09-15T14:41:46.604Z,2.97
2022-09-15T14:47:20.529Z,3.78
2022-09-15T14:49:48.916Z,9.27
2022-09-15T14:52:29.872Z,2.70
2022-09-15T14:55:02.914Z,4.15
2022-09-15T14:57:36.807Z,4.35
2022-09-15T15:00:11.353Z,2.95
2022-09-15T15:02:54.168Z,4.20
2022-09-15T15:05:26.099Z,2.28
2022-09-15T15:07:55.721Z,4.25
2022-09-15T15:10:27.993Z,3.97
2022-09-15T15:13:01.639Z,3.08
2022-09-15T15:15:33.135Z,6.43
2022-09-15T15:18:01.527Z,2.08
2022-09-15T15:20:31.404Z,2.63
2022-09-15T15:23:13.822Z,3.83
2022-09-15T15:25:43.092Z,4.97
2022-09-15T15:28:32.825Z,2.45
2022-09-15T15:31:13.691Z,2.47
2022-09-15T15:33:48.086Z,1.20
2022-09-15T15:36:16.476Z,2.38
2022-09-15T15:38:50.704Z,2.63
2022-09-15T15:41:22.819Z,3.50
2022-09-15T15:44:03.403Z,3.53
2022-09-15T15:46:53.423Z,2.00
2022-09-15T15:49:25.779Z,5.85
2022-09-15T15:51:55.295Z,7.20
2022-09-15T15:54:23.906Z,5.70
2022-09-15T15:56:52.309Z,6.22
2022-09-15T15:59:20.700Z,5.60
2022-09-15T16:01:52.912Z,3.53
2022-09-15T16:04:21.295Z,2.58
2022-09-15T16:06:49.579Z,3.13
2022-09-15T16:09:19.373Z,3.72
2022-09-15T16:11:47.878Z,3.50
2022-09-15T16:14:15.999Z,3.08
2022-09-15T16:16:44.675Z,5.55
2022-09-15T16:19:14.249Z,4.28
2022-09-15T16:21:44.014Z,3.42
2022-09-15T16:24:14.685Z,2.72
2022-09-15T16:26:43.108Z,4.32
2022-09-15T16:29:11.655Z,3.47
2022-09-15T16:31:40.502Z,3.20
2022-09-15T16:34:10.975Z,3.90
2022-09-15T16:36:40.475Z,2.35
2022-09-15T16:39:08.382Z,2.97
2022-09-15T16:41:39.279Z,3.47
2022-09-15T16:44:15.603Z,4.72
2022-09-15T16:46:43.653Z,3.50
2022-09-15T16:49:11.630Z,5.32
2022-09-15T16:51:41.301Z,3.55
2022-09-15T16:54:16.314Z,4.20
2022-09-15T16:56:45.253Z,3.20
2022-09-15T16:59:13.412Z,4.38
2022-09-15T17:01:41.542Z,3.05
2022-09-15T17:04:13.875Z,4.50
2022-09-15T17:06:43.194Z,3.42
2022-09-15T17:09:11.115Z,4.50
2022-09-15T17:11:39.180Z,3.53
2022-09-15T17:14:07.492Z,3.90
2022-09-15T17:16:35.901Z,4.65
2022-09-15T17:19:03.890Z,4.90
2022-09-15T17:21:32.290Z,3.53
2022-09-15T17:24:01.651Z,3.97
2022-09-15T17:26:31.686Z,4.70
2022-09-15T17:31:28.213Z,3.65
2022-09-15T17:33:56.375Z,4.13
2022-09-15T17:36:24.363Z,6.40
2022-09-15T17:38:52.709Z,4.65
2022-09-15T17:41:23.012Z,3.00
2022-09-15T17:43:51.361Z,1.48
2022-09-15T17:46:20.502Z,1.25
2022-09-15T17:48:48.429Z,3.08
2022-09-15T17:51:18.418Z,3.53
2022-09-15T17:53:47.659Z,2.70
2022-09-15T17:56:15.658Z,1.73
2022-09-15T17:58:45.587Z,5.93
2022-09-15T18:01:15.285Z,2.67
2022-09-15T18:03:44.764Z,4.95
2022-09-15T18:06:13.405Z,5.93
2022-09-15T18:08:41.386Z,2.70
2022-09-15T18:11:09.549Z,2.58
2022-09-15T18:13:37.942Z,2.65
2022-09-15T18:16:12.246Z,5.70
2022-09-15T18:18:41.134Z,4.53
2022-09-15T18:21:12.263Z,4.97
2022-09-15T18:23:42.432Z,2.35
2022-09-15T18:28:38.339Z,2.25
2022-09-15T18:31:08.083Z,3.08
2022-09-15T18:33:36.143Z,1.23
2022-09-15T18:36:07.369Z,2.28
2022-09-15T18:38:35.463Z,1.00
2022-09-15T18:41:04.565Z,2.53
2022-09-15T18:43:32.476Z,4.03
2022-09-15T18:46:01.022Z,3.15
2022-09-15T18:48:30.624Z,2.97
2022-09-15T18:50:58.699Z,3.63
2022-09-15T18:53:26.673Z,1.55
2022-09-15T18:55:54.716Z,1.63
2022-09-15T18:58:22.718Z,4.28
2022-09-15T19:00:50.729Z,1.55
2022-09-15T19:03:18.808Z,3.05
2022-09-15T19:05:48.611Z,5.07
2022-09-15T19:08:17.018Z,2.13
2022-09-15T19:10:45.055Z,1.63
2022-09-15T19:13:14.297Z,2.88
2022-09-15T19:15:44.086Z,1.57
2022-09-15T19:18:12.286Z,2.95
2022-09-15T19:20:40.856Z,3.95
2022-09-15T19:23:11.071Z,3.65
2022-09-15T19:30:37.805Z,3.75
2022-09-15T19:33:06.001Z,2.55
2022-09-15T19:35:34.130Z,3.53
2022-09-15T19:38:02.696Z,2.67
2022-09-15T19:40:32.181Z,2.92
2022-09-15T19:43:00.693Z,1.55
2022-09-15T19:45:28.791Z,2.63
2022-09-15T19:47:57.119Z,2.97
2022-09-15T19:50:27.940Z,3.53
2022-09-15T19:52:58.965Z,2.70
2022-09-15T19:55:28.944Z,2.05
2022-09-15T19:57:58.362Z,1.85
2022-09-15T20:00:26.541Z,3.47
2022-09-15T20:02:54.564Z,2.83
2022-09-15T20:05:22.906Z,1.90
2022-09-15T20:07:50.936Z,2.78
2022-09-15T20:10:19.042Z,3.15
2022-09-15T20:12:47.035Z,3.90
2022-09-15T20:15:16.497Z,3.30
2022-09-15T20:17:44.568Z,4.07
2022-09-15T20:20:12.671Z,3.55
2022-09-15T20:22:40.745Z,1.98
2022-09-15T20:25:09.168Z,2.95
2022-09-15T20:27:37.084Z,1.52
2022-09-15T20:30:06.285Z,1.92
2022-09-15T20:32:35.575Z,2.03
2022-09-15T20:35:04.530Z,1.17
2022-09-15T20:37:37.276Z,1.92
2022-09-15T20:40:06.795Z,1.83
2022-09-15T20:42:34.756Z,1.92
2022-09-15T20:45:03.074Z,3.55
2022-09-15T20:47:31.354Z,2.28
2022-09-15T20:50:00.787Z,1.85
2022-09-15T20:52:35.869Z,1.25
2022-09-15T20:55:06.773Z,2.65
2022-09-15T20:57:34.921Z,1.40
2022-09-15T21:00:04.771Z,3.00
2022-09-15T21:02:33.191Z,3.22
2022-09-15T21:05:02.653Z,2.47
2022-09-15T21:07:30.770Z,2.85
2022-09-15T21:09:58.737Z,1.27
2022-09-15T21:12:26.828Z,5.70
2022-09-15T21:14:55.404Z,3.17
2022-09-15T21:17:23.554Z,2.38
2022-09-15T21:19:51.455Z,2.42
2022-09-15T21:22:20.731Z,1.67
2022-09-15T21:24:48.611Z,2.70
2022-09-15T21:27:28.811Z,2.60
2022-09-15T21:29:56.722Z,3.00
2022-09-15T21:32:25.263Z,1.15
2022-09-15T21:34:55.808Z,3.05
2022-09-15T21:37:27.041Z,2.85
2022-09-15T21:39:54.977Z,3.45
2022-09-15T21:42:23.054Z,3.03
2022-09-15T21:44:50.928Z,3.88
2022-09-15T21:47:19.526Z,3.83
2022-09-15T21:49:47.520Z,3.83
2022-09-15T21:52:15.735Z,2.22
2022-09-15T21:54:45.476Z,3.28
2022-09-15T21:57:15.468Z,3.67
2022-09-15T21:59:43.484Z,4.20
2022-09-15T22:02:12.107Z,2.53
2022-09-15T22:04:41.056Z,3.45
2022-09-15T22:07:11.099Z,3.95
2022-09-15T22:09:39.677Z,4.93
2022-09-15T22:12:09.676Z,1.83
2022-09-15T22:14:37.622Z,1.50
2022-09-15T22:17:05.488Z,1.70
2022-09-15T22:19:33.354Z,4.80
2022-09-15T22:22:01.310Z,4.07
2022-09-15T22:24:29.216Z,2.15
2022-09-15T22:26:57.326Z,5.18
2022-09-15T22:29:26.675Z,2.95
2022-09-15T22:31:54.665Z,3.93
2022-09-15T22:34:22.631Z,3.65
2022-09-15T22:36:50.598Z,4.00
2022-09-15T22:39:18.478Z,1.33
2022-09-15T22:41:46.390Z,2.17
2022-09-15T22:44:19.689Z,3.67
2022-09-15T22:46:51.545Z,2.83
2022-09-15T22:49:19.810Z,4.43
2022-09-15T22:51:47.647Z,2.20
2022-09-15T22:54:16.040Z,3.25
2022-09-15T22:56:43.943Z,5.70
2022-09-15T22:59:11.890Z,1.75
2022-09-15T23:01:39.810Z,3.35
2022-09-15T23:04:09.133Z,2.88
2022-09-15T23:06:37.130Z,2.23
2022-09-15T23:09:08.865Z,3.10
2022-09-15T23:11:39.659Z,4.72
2022-09-15T23:14:08.704Z,2.33
2022-09-15T23:16:36.728Z,2.88
2022-09-15T23:19:05.271Z,2.28
2022-09-15T23:21:34.799Z,4.43
2022-09-15T23:24:03.302Z,5.33
2022-09-15T23:26:31.500Z,4.13
2022-09-15T23:28:59.448Z,4.28
2022-09-15T23:31:27.505Z,2.15
2022-09-15T23:33:55.474Z,3.90
2022-09-15T23:36:23.583Z,3.55
2022-09-15T23:38:53.019Z,1.80
2022-09-15T23:41:21.260Z,3.55
2022-09-15T23:43:49.273Z,4.15
2022-09-15T23:46:17.434Z,3.55
2022-09-15T23:48:45.414Z,7.18
2022-09-15T23:51:13.305Z,4.43
2022-09-15T23:53:41.404Z,3.97
2022-09-15T23:56:10.757Z,5.07
2022-09-15T23:58:39.559Z,4.43
